Seaford, Delaware
Current Conditions -  °F | °C
As of 7:54 PM on Thursday 27 Nov 2014 (Local Time) from KGED Reporting Station
Clear Clear  
Wind Chill: 32°   Ceiling: Unl
Heat Index: 36°   Visibility: 10mi
Dew Point: 27°   Wind: 5mph
Humidity: 70%   Direction: 320°NW
Pressure: 30.12"   Gusts: NA
Location:  38.64°N, 75.61°W
Report Text: KGED 280054Z AUTO 32004KT 10SM CLR 02/M03 A3012 RMK AO2 SLP199 T00221028
Loading
Personal Weather Stations






























Interactive Weather Map New forecast layout! Learn more

10-Day Weather Forecast

Advertisements
Track Severe Weather on mobile